createdAt,value
2022-12-16T00:01:18.705Z,11.32
2022-12-16T00:03:57.273Z,10.45
2022-12-16T00:06:29.655Z,11.10
2022-12-16T00:08:56.904Z,9.60
2022-12-16T00:11:24.213Z,11.20
2022-12-16T00:13:51.392Z,11.02
2022-12-16T00:16:20.865Z,10.82
2022-12-16T00:18:48.261Z,10.35
2022-12-16T00:21:15.649Z,9.52
2022-12-16T00:23:42.657Z,10.50
2022-12-16T00:26:10.855Z,11.25
2022-12-16T00:28:39.114Z,10.65
2022-12-16T00:31:07.162Z,9.85
2022-12-16T00:33:34.748Z,10.93
2022-12-16T00:36:01.970Z,10.82
2022-12-16T00:38:29.437Z,11.10
2022-12-16T00:40:56.497Z,11.07
2022-12-16T00:43:23.416Z,10.93
2022-12-16T00:45:51.918Z,10.30
2022-12-16T00:48:19.447Z,10.32
2022-12-16T00:50:50.386Z,10.93
2022-12-16T00:53:20.743Z,11.55
2022-12-16T00:55:47.817Z,10.25
2022-12-16T00:58:15.098Z,10.77
2022-12-16T01:00:42.125Z,11.23
2022-12-16T01:03:09.669Z,10.00
2022-12-16T01:05:38.974Z,10.98
2022-12-16T01:08:06.283Z,11.40
2022-12-16T01:10:33.339Z,11.77
2022-12-16T01:13:00.361Z,11.35
2022-12-16T01:15:27.482Z,11.80
2022-12-16T01:17:54.498Z,10.82
2022-12-16T01:20:22.399Z,11.57
2022-12-16T01:22:49.510Z,11.55
2022-12-16T01:25:17.738Z,11.38
2022-12-16T01:27:44.774Z,12.18
2022-12-16T01:30:12.244Z,11.05
2022-12-16T01:32:39.206Z,10.90
2022-12-16T01:35:18.027Z,10.98
2022-12-16T01:37:50.472Z,10.55
2022-12-16T01:40:20.816Z,11.43
2022-12-16T01:42:47.902Z,10.82
2022-12-16T01:45:35.909Z,10.93
2022-12-16T01:48:50.936Z,10.10
2022-12-16T01:51:26.470Z,10.73
2022-12-16T01:56:53.722Z,10.63
2022-12-16T01:59:24.572Z,11.68
2022-12-16T02:01:52.500Z,10.32
2022-12-16T02:04:19.649Z,11.52
2022-12-16T02:06:47.152Z,10.60
2022-12-16T02:09:17.768Z,12.48
2022-12-16T02:15:13.992Z,12.75
2022-12-16T02:18:00.864Z,10.93
2022-12-16T02:21:05.558Z,11.90
2022-12-16T02:23:53.717Z,11.73
2022-12-16T02:26:49.116Z,12.25
2022-12-16T02:29:44.068Z,12.43
2022-12-16T02:32:35.418Z,12.45
2022-12-16T02:35:23.103Z,12.25
2022-12-16T02:38:08.337Z,13.57
2022-12-16T02:41:06.913Z,11.77
2022-12-16T02:46:43.100Z,13.00
2022-12-16T02:49:30.523Z,12.77
2022-12-16T02:51:59.756Z,12.70
2022-12-16T02:54:28.249Z,13.00
2022-12-16T02:57:04.099Z,13.50
2022-12-16T03:02:33.836Z,13.18
2022-12-16T03:05:08.153Z,13.90
2022-12-16T03:07:38.507Z,13.15
2022-12-16T03:10:08.599Z,14.10
2022-12-16T03:12:38.264Z,14.85
2022-12-16T03:15:07.770Z,14.20
2022-12-16T03:20:30.076Z,14.75
2022-12-16T03:23:03.171Z,13.48
2022-12-16T03:25:32.617Z,13.80
2022-12-16T03:28:16.179Z,14.20
2022-12-16T03:30:48.911Z,16.35
2022-12-16T03:33:28.649Z,15.05
2022-12-16T03:36:22.352Z,13.93
2022-12-16T03:38:51.232Z,14.85
2022-12-16T03:41:20.745Z,15.15
2022-12-16T03:43:49.455Z,15.38
2022-12-16T03:46:17.430Z,14.95
2022-12-16T03:48:49.834Z,12.82
2022-12-16T03:54:02.388Z,13.97
2022-12-16T03:56:29.381Z,15.35
2022-12-16T03:58:56.409Z,14.15
2022-12-16T04:01:23.627Z,14.70
2022-12-16T04:03:50.731Z,15.63
2022-12-16T04:06:18.711Z,14.20
2022-12-16T04:11:49.919Z,14.02
2022-12-16T04:14:35.255Z,15.43
2022-12-16T04:17:21.228Z,14.77
2022-12-16T04:20:07.293Z,15.52
2022-12-16T04:23:02.331Z,14.55
2022-12-16T04:28:18.488Z,14.27
2022-12-16T04:30:45.481Z,15.75
2022-12-16T04:33:33.937Z,13.70
2022-12-16T04:36:19.822Z,13.82
2022-12-16T04:39:05.041Z,14.40
2022-12-16T04:44:53.972Z,15.20
2022-12-16T04:47:57.968Z,14.85
2022-12-16T04:50:43.716Z,15.05
2022-12-16T04:53:29.335Z,15.25
2022-12-16T04:56:15.173Z,15.13
2022-12-16T05:02:14.695Z,16.77
2022-12-16T05:05:00.607Z,15.00
2022-12-16T05:07:45.953Z,14.93
2022-12-16T05:10:31.348Z,14.80
2022-12-16T05:13:16.975Z,15.03
2022-12-16T05:16:02.380Z,15.23
2022-12-16T05:18:48.267Z,16.17
2022-12-16T05:21:33.609Z,14.57
2022-12-16T05:24:19.148Z,15.77
2022-12-16T05:27:04.800Z,15.45
2022-12-16T05:29:50.502Z,16.60
2022-12-16T05:32:42.500Z,14.77
2022-12-16T05:35:27.988Z,16.67
2022-12-16T05:38:13.543Z,16.05
2022-12-16T05:40:59.189Z,15.23
2022-12-16T05:43:44.946Z,16.00
2022-12-16T05:46:30.416Z,15.48
2022-12-16T05:49:16.241Z,14.95
2022-12-16T05:52:02.136Z,16.17
2022-12-16T05:54:48.040Z,16.85
2022-12-16T05:57:33.695Z,17.58
2022-12-16T06:00:19.040Z,14.88
2022-12-16T06:03:05.053Z,16.17
2022-12-16T06:05:50.723Z,16.85
2022-12-16T06:08:36.303Z,17.85
2022-12-16T06:11:21.731Z,15.63
2022-12-16T06:14:07.331Z,16.20
2022-12-16T06:16:53.199Z,16.45
2022-12-16T06:19:38.879Z,16.13
2022-12-16T06:22:24.293Z,16.65
2022-12-16T06:25:09.764Z,14.77
2022-12-16T06:27:55.164Z,15.53
2022-12-16T06:30:40.708Z,16.20
2022-12-16T06:33:26.296Z,16.73
2022-12-16T06:36:11.859Z,16.88
2022-12-16T06:38:57.262Z,16.48
2022-12-16T06:41:47.156Z,16.60
2022-12-16T06:44:32.821Z,17.15
2022-12-16T06:47:18.464Z,16.27
2022-12-16T06:50:04.249Z,15.32
2022-12-16T06:52:50.351Z,16.50
2022-12-16T06:55:35.984Z,18.13
2022-12-16T06:58:21.394Z,18.80
2022-12-16T07:01:07.361Z,17.73
2022-12-16T07:03:52.811Z,16.58
2022-12-16T07:06:38.524Z,17.93
2022-12-16T07:09:24.283Z,18.30
2022-12-16T07:12:09.803Z,17.92
2022-12-16T07:14:55.525Z,17.23
2022-12-16T07:17:41.463Z,17.98
2022-12-16T07:20:27.715Z,17.83
2022-12-16T07:23:19.303Z,16.52
2022-12-16T07:26:05.616Z,17.92
2022-12-16T07:28:50.917Z,17.83
2022-12-16T07:31:36.852Z,17.90
2022-12-16T07:34:22.552Z,18.48
2022-12-16T07:37:07.912Z,17.10
2022-12-16T07:39:55.348Z,20.87
2022-12-16T07:42:42.260Z,18.48
2022-12-16T07:45:28.415Z,19.55
2022-12-16T07:48:14.357Z,20.33
2022-12-16T07:51:00.334Z,20.27
2022-12-16T07:56:31.118Z,17.90
2022-12-16T07:59:16.640Z,18.60
2022-12-16T08:02:02.227Z,20.83
2022-12-16T08:04:47.655Z,19.88
2022-12-16T08:07:33.268Z,18.30
2022-12-16T08:10:18.662Z,18.75
2022-12-16T08:13:11.717Z,19.23
2022-12-16T08:15:57.303Z,19.40
2022-12-16T08:18:42.839Z,18.67
2022-12-16T08:21:28.201Z,19.25
2022-12-16T08:24:13.716Z,19.20
2022-12-16T08:26:59.515Z,17.42
2022-12-16T08:29:45.703Z,18.38
2022-12-16T08:32:32.804Z,18.50
2022-12-16T08:35:18.638Z,18.67
2022-12-16T08:38:12.057Z,20.38
2022-12-16T08:41:02.749Z,21.75
2022-12-16T08:43:54.945Z,22.23
2022-12-16T08:46:40.771Z,20.33
2022-12-16T08:49:26.555Z,21.77
2022-12-16T08:52:12.167Z,20.50
2022-12-16T08:54:57.742Z,21.52
2022-12-16T08:57:44.510Z,22.33
2022-12-16T09:00:48.756Z,20.88
2022-12-16T09:03:34.754Z,20.85
2022-12-16T09:06:20.725Z,22.13
2022-12-16T09:09:06.131Z,22.20
2022-12-16T09:11:51.721Z,19.00
2022-12-16T09:14:44.782Z,20.58
2022-12-16T09:17:30.620Z,21.00
2022-12-16T09:20:16.139Z,21.35
2022-12-16T09:23:01.487Z,21.90
2022-12-16T09:25:46.945Z,19.53
2022-12-16T09:28:32.428Z,20.90
2022-12-16T09:31:17.917Z,20.48
2022-12-16T09:34:03.528Z,21.50
2022-12-16T09:36:49.166Z,20.10
2022-12-16T09:39:34.675Z,20.75
2022-12-16T09:42:38.992Z,19.63
2022-12-16T09:45:27.736Z,22.80
2022-12-16T09:48:31.204Z,19.88
2022-12-16T09:51:23.247Z,21.73
2022-12-16T09:54:11.811Z,20.98
2022-12-16T09:56:57.552Z,21.00
2022-12-16T10:00:08.109Z,23.95
2022-12-16T10:02:53.819Z,22.00
2022-12-16T10:05:54.456Z,20.33
2022-12-16T10:08:50.282Z,20.83
2022-12-16T10:12:02.372Z,21.83
2022-12-16T10:14:58.457Z,20.85
2022-12-16T10:17:44.644Z,22.35
2022-12-16T10:20:48.587Z,20.98
2022-12-16T10:23:48.163Z,22.48
2022-12-16T10:26:41.436Z,21.88
2022-12-16T10:29:38.911Z,23.23
2022-12-16T10:32:52.048Z,23.48
2022-12-16T10:35:42.609Z,23.80
2022-12-16T10:38:57.757Z,23.75
2022-12-16T10:41:47.765Z,22.52
2022-12-16T10:44:59.672Z,22.48
2022-12-16T10:47:45.252Z,20.52
2022-12-16T10:50:32.880Z,21.60
2022-12-16T10:53:22.717Z,20.67
2022-12-16T10:56:08.062Z,22.15
2022-12-16T10:59:06.326Z,21.15
2022-12-16T11:01:51.890Z,20.90
2022-12-16T11:04:52.558Z,21.98
2022-12-16T11:08:05.005Z,21.20
2022-12-16T11:10:58.919Z,20.95
2022-12-16T11:13:51.865Z,22.30
2022-12-16T11:16:48.173Z,23.05
2022-12-16T11:19:43.529Z,22.33
2022-12-16T11:22:38.203Z,23.40
2022-12-16T11:25:32.824Z,23.70
2022-12-16T11:28:32.675Z,23.38
2022-12-16T11:31:33.780Z,22.73
2022-12-16T11:34:21.523Z,23.60
2022-12-16T11:37:11.106Z,23.02
2022-12-16T11:39:58.721Z,25.80
2022-12-16T11:42:51.432Z,24.13
2022-12-16T11:45:39.620Z,23.38
2022-12-16T11:48:36.172Z,24.88
2022-12-16T11:51:23.190Z,23.92
2022-12-16T11:54:35.721Z,25.02
2022-12-16T11:57:24.495Z,24.25
2022-12-16T12:00:17.710Z,24.00
2022-12-16T12:03:17.344Z,23.63
2022-12-16T12:06:25.363Z,25.17
2022-12-16T12:09:30.194Z,24.55
2022-12-16T12:12:30.990Z,24.48
2022-12-16T12:15:27.819Z,24.25
2022-12-16T12:18:35.953Z,23.25
2022-12-16T12:21:32.103Z,25.13
2022-12-16T12:24:20.496Z,24.80
2022-12-16T12:27:17.916Z,25.05
2022-12-16T12:30:16.717Z,25.70
2022-12-16T12:33:08.498Z,23.33
2022-12-16T12:36:39.851Z,25.83
2022-12-16T12:39:25.476Z,25.45
2022-12-16T12:42:45.670Z,25.17
2022-12-16T12:45:54.666Z,24.75
2022-12-16T12:49:06.017Z,26.85
2022-12-16T12:52:14.568Z,25.63
2022-12-16T12:55:22.245Z,27.52
2022-12-16T12:58:09.405Z,25.63
2022-12-16T13:01:04.177Z,26.23
2022-12-16T13:04:20.002Z,27.55
2022-12-16T13:07:06.109Z,26.80
2022-12-16T13:09:56.753Z,29.67
2022-12-16T13:12:50.388Z,28.55
2022-12-16T13:15:57.381Z,29.33
2022-12-16T13:18:48.097Z,28.00
2022-12-16T13:21:56.395Z,28.20
2022-12-16T13:24:45.464Z,29.13
2022-12-16T13:27:35.700Z,29.40
2022-12-16T13:30:39.131Z,28.42
2022-12-16T13:33:51.087Z,27.80
2022-12-16T13:36:37.463Z,28.13
2022-12-16T13:39:40.485Z,28.60
2022-12-16T13:42:51.732Z,29.85
2022-12-16T13:46:02.166Z,30.33
2022-12-16T13:49:05.465Z,30.98
2022-12-16T13:51:56.740Z,28.60
2022-12-16T13:54:47.872Z,29.63
2022-12-16T13:57:36.718Z,29.38
2022-12-16T14:00:24.686Z,28.88
2022-12-16T14:03:11.454Z,28.33
2022-12-16T14:06:01.636Z,29.67
2022-12-16T14:08:55.113Z,28.98
2022-12-16T14:12:06.528Z,27.05
2022-12-16T14:15:03.184Z,27.48
2022-12-16T14:18:18.042Z,30.23
2022-12-16T14:21:13.247Z,28.85
2022-12-16T14:24:10.598Z,28.83
2022-12-16T14:26:57.117Z,28.08
2022-12-16T14:29:51.732Z,26.63
2022-12-16T14:32:43.253Z,26.67
2022-12-16T14:35:35.904Z,27.67
2022-12-16T14:38:44.819Z,28.92
2022-12-16T14:41:41.416Z,28.83
2022-12-16T14:44:41.453Z,28.73
2022-12-16T14:47:39.073Z,28.23
2022-12-16T14:50:44.842Z,31.30
2022-12-16T14:53:34.867Z,30.25
2022-12-16T14:56:41.366Z,29.33
2022-12-16T14:59:36.062Z,30.30
2022-12-16T15:02:48.456Z,29.33
2022-12-16T15:05:34.392Z,30.27
2022-12-16T15:08:19.967Z,29.83
2022-12-16T15:11:05.834Z,28.92
2022-12-16T15:13:54.337Z,27.23
2022-12-16T15:16:51.686Z,26.45
2022-12-16T15:19:41.313Z,25.77
2022-12-16T15:22:34.864Z,26.17
2022-12-16T15:25:21.627Z,26.75
2022-12-16T15:28:15.284Z,27.27
2022-12-16T15:31:05.413Z,26.70
2022-12-16T15:33:56.439Z,25.88
2022-12-16T15:36:51.368Z,24.65
2022-12-16T15:39:53.542Z,23.33
2022-12-16T15:42:47.926Z,24.33
2022-12-16T15:45:36.316Z,24.33
2022-12-16T15:48:32.226Z,21.55
2022-12-16T15:51:17.745Z,21.77
2022-12-16T15:54:03.277Z,22.15
2022-12-16T15:57:03.803Z,23.67
2022-12-16T15:59:52.372Z,22.35
2022-12-16T16:02:46.904Z,21.10
2022-12-16T16:05:34.081Z,20.23
2022-12-16T16:08:19.726Z,20.15
2022-12-16T16:11:05.478Z,23.23
2022-12-16T16:13:51.348Z,21.73
2022-12-16T16:16:37.417Z,19.75
2022-12-16T16:19:28.321Z,19.88
2022-12-16T16:22:13.986Z,19.80
2022-12-16T16:25:02.000Z,19.67
2022-12-16T16:27:47.724Z,21.13
2022-12-16T16:30:33.009Z,18.27
2022-12-16T16:33:18.481Z,20.15
2022-12-16T16:36:04.147Z,19.15
2022-12-16T16:38:49.473Z,22.23
2022-12-16T16:41:35.833Z,24.42
2022-12-16T16:47:23.625Z,20.88
2022-12-16T16:50:09.253Z,20.20
2022-12-16T16:52:54.912Z,20.00
2022-12-16T16:55:42.781Z,19.88
2022-12-16T16:58:46.914Z,19.13
2022-12-16T17:01:35.256Z,20.08
2022-12-16T17:04:21.642Z,20.83
2022-12-16T17:07:07.607Z,20.15
2022-12-16T17:09:52.978Z,19.50
2022-12-16T17:12:40.437Z,18.90
2022-12-16T17:15:32.252Z,19.65
2022-12-16T17:18:18.033Z,21.02
2022-12-16T17:21:03.554Z,21.63
2022-12-16T17:23:52.175Z,20.15
2022-12-16T17:26:37.854Z,20.70
2022-12-16T17:29:23.691Z,18.77
2022-12-16T17:32:11.283Z,19.23
2022-12-16T17:34:56.684Z,18.63
2022-12-16T17:37:42.287Z,19.97
2022-12-16T17:40:28.572Z,19.55
2022-12-16T17:45:59.963Z,20.38
2022-12-16T17:48:45.907Z,20.75
2022-12-16T17:51:31.562Z,20.70
2022-12-16T17:54:23.815Z,19.80
2022-12-16T17:57:10.623Z,19.95
2022-12-16T18:00:10.309Z,20.33
2022-12-16T18:02:58.877Z,19.90
2022-12-16T18:05:45.139Z,21.30
2022-12-16T18:08:30.986Z,21.13
2022-12-16T18:11:17.342Z,21.88
2022-12-16T18:16:48.900Z,22.08
2022-12-16T18:19:35.605Z,20.90
2022-12-16T18:22:22.079Z,21.65
2022-12-16T18:25:07.722Z,21.48
2022-12-16T18:27:55.203Z,22.02
2022-12-16T18:30:40.868Z,22.35
2022-12-16T18:33:27.004Z,22.30
2022-12-16T18:38:58.543Z,22.48
2022-12-16T18:41:44.154Z,24.88
2022-12-16T18:44:31.958Z,24.60
2022-12-16T18:47:19.678Z,24.23
2022-12-16T18:50:05.109Z,23.90
2022-12-16T18:52:50.621Z,22.37
2022-12-16T18:55:36.003Z,23.70
2022-12-16T19:01:30.882Z,24.45
2022-12-16T19:04:17.676Z,24.02
2022-12-16T19:09:49.214Z,24.50
2022-12-16T19:12:35.016Z,22.38
2022-12-16T19:15:20.386Z,23.38
2022-12-16T19:18:06.099Z,23.23
2022-12-16T19:20:51.490Z,23.33
2022-12-16T19:23:37.916Z,23.38
2022-12-16T19:26:23.974Z,24.52
2022-12-16T19:29:09.610Z,25.38
2022-12-16T19:31:56.046Z,23.80
2022-12-16T19:34:42.106Z,25.30
2022-12-16T19:37:27.574Z,25.00
2022-12-16T19:40:13.059Z,24.80
2022-12-16T19:42:58.503Z,24.17
2022-12-16T19:45:44.111Z,23.77
2022-12-16T19:48:29.837Z,24.23
2022-12-16T19:51:16.618Z,25.20
2022-12-16T19:54:02.943Z,24.90
2022-12-16T19:56:49.576Z,25.35
2022-12-16T19:59:34.965Z,25.73
2022-12-16T20:02:20.865Z,25.20
2022-12-16T20:05:06.596Z,25.42
2022-12-16T20:07:51.851Z,24.98
2022-12-16T20:10:37.521Z,23.80
2022-12-16T20:13:30.181Z,25.00
2022-12-16T20:16:27.387Z,24.40
2022-12-16T20:19:13.922Z,24.77
2022-12-16T20:22:06.791Z,25.02
2022-12-16T20:24:52.924Z,26.35
2022-12-16T20:27:42.271Z,25.17
2022-12-16T20:30:28.844Z,24.25
2022-12-16T20:33:14.555Z,24.15
2022-12-16T20:36:00.028Z,24.40
2022-12-16T20:38:45.562Z,24.88
2022-12-16T20:41:31.112Z,23.60
2022-12-16T20:44:17.010Z,22.40
2022-12-16T20:47:02.780Z,23.67
2022-12-16T20:49:48.328Z,23.40
2022-12-16T20:52:33.872Z,22.83
2022-12-16T20:55:19.164Z,23.42
2022-12-16T20:58:04.598Z,24.85
2022-12-16T21:00:50.193Z,24.07
2022-12-16T21:03:35.928Z,23.33
2022-12-16T21:06:23.317Z,24.20
2022-12-16T21:09:08.877Z,22.83
2022-12-16T21:11:56.392Z,26.17
2022-12-16T21:14:42.095Z,24.75
2022-12-16T21:17:27.687Z,24.77
2022-12-16T21:20:13.194Z,23.55
2022-12-16T21:22:58.581Z,24.27
2022-12-16T21:25:44.179Z,24.87
2022-12-16T21:28:31.237Z,24.02
2022-12-16T21:31:20.326Z,24.77
2022-12-16T21:34:05.754Z,24.05
2022-12-16T21:36:51.337Z,24.00
2022-12-16T21:39:37.088Z,24.52
2022-12-16T21:42:22.877Z,23.27
2022-12-16T21:45:08.373Z,24.00
2022-12-16T21:47:53.891Z,23.80
2022-12-16T21:50:41.841Z,24.98
2022-12-16T21:53:27.772Z,23.50
2022-12-16T21:56:15.045Z,24.33
2022-12-16T21:59:03.725Z,23.85
2022-12-16T22:01:49.239Z,24.30
2022-12-16T22:04:34.995Z,25.60
2022-12-16T22:07:20.473Z,23.42
2022-12-16T22:10:05.922Z,23.88
2022-12-16T22:12:56.101Z,23.88
2022-12-16T22:15:41.962Z,23.90
2022-12-16T22:18:27.421Z,24.77
2022-12-16T22:21:22.675Z,25.90
2022-12-16T22:24:08.971Z,25.48
2022-12-16T22:26:54.777Z,25.58
2022-12-16T22:29:42.234Z,27.65
2022-12-16T22:32:35.178Z,24.75
2022-12-16T22:35:20.637Z,24.75
2022-12-16T22:38:06.000Z,25.33
2022-12-16T22:40:51.347Z,24.50
2022-12-16T22:43:37.737Z,24.48
2022-12-16T22:46:23.614Z,23.17
2022-12-16T22:49:09.225Z,25.45
2022-12-16T22:51:55.119Z,25.27
2022-12-16T22:54:42.555Z,24.65
2022-12-16T22:57:27.990Z,24.73
2022-12-16T23:00:13.828Z,25.38
2022-12-16T23:02:59.468Z,26.45
2022-12-16T23:05:45.379Z,24.98
2022-12-16T23:08:30.727Z,24.98
2022-12-16T23:11:17.453Z,25.70
2022-12-16T23:14:03.712Z,25.55
2022-12-16T23:19:34.956Z,25.83
2022-12-16T23:22:20.475Z,26.50
2022-12-16T23:25:05.772Z,25.77
2022-12-16T23:27:51.154Z,29.87
2022-12-16T23:30:37.678Z,24.75
2022-12-16T23:33:23.472Z,39.28
2022-12-16T23:36:09.380Z,27.02
2022-12-16T23:41:42.100Z,25.38
2022-12-16T23:44:27.889Z,27.05
2022-12-16T23:47:13.548Z,27.08
2022-12-16T23:49:59.497Z,26.27
2022-12-16T23:52:45.029Z,27.38
2022-12-16T23:55:30.469Z,26.73
2022-12-16T23:58:20.054Z,26.15
